Time;durP1;ratioP1;P1;durP2;ratioP2;P2;SDS_P1;SDS_P2;PMS_P1;PMS_P2;Temp;Humidity;BMP_temperature;BMP_pressure;BME280_temperature;BME280_humidity;BME280_pressure;Samples;Min_cycle;Max_cycle;Signal;HPM_P1;HPM_P2
2023/05/18 00:01:06;;;;;;;10.47;4.47;;;5.40;53.30;;;;;;5083049;27;46483;-66
2023/05/18 00:03:32;;;;;;;6.93;4.70;;;5.40;53.20;;;;;;5081772;27;46388;-67
2023/05/18 00:06:05;;;;;;;9.73;4.70;;;5.40;53.30;;;;;;5083434;27;46382;-66
2023/05/18 00:08:35;;;;;;;13.73;5.37;;;5.40;53.40;;;;;;5086664;27;46228;-67
2023/05/18 00:11:02;;;;;;;10.00;5.23;;;5.40;53.20;;;;;;5073323;27;46447;-66
2023/05/18 00:13:28;;;;;;;12.20;5.50;;;5.40;53.40;;;;;;5075890;28;46420;-67
2023/05/18 00:15:54;;;;;;;12.00;6.57;;;5.40;53.50;;;;;;5069368;27;46467;-68
2023/05/18 00:18:22;;;;;;;10.27;5.67;;;5.40;53.60;;;;;;5069371;27;47046;-66
2023/05/18 00:20:49;;;;;;;7.77;5.07;;;5.40;53.70;;;;;;5072136;27;46291;-66
2023/05/18 00:23:15;;;;;;;8.73;4.90;;;5.30;53.80;;;;;;5068211;27;46395;-66
2023/05/18 00:25:41;;;;;;;7.03;4.00;;;5.30;54.00;;;;;;5071776;27;46574;-65
2023/05/18 00:28:07;;;;;;;10.73;5.27;;;5.30;54.10;;;;;;5069442;27;47259;-66
2023/05/18 00:30:32;;;;;;;8.30;5.27;;;5.30;54.30;;;;;;5066958;28;46419;-66
2023/05/18 00:32:58;;;;;;;7.03;4.73;;;5.30;54.40;;;;;;5069583;27;45931;-66
2023/05/18 00:35:23;;;;;;;14.93;5.00;;;5.20;54.50;;;;;;5068225;27;46544;-66
2023/05/18 00:37:49;;;;;;;11.83;4.77;;;5.20;54.70;;;;;;5070466;28;46413;-66
2023/05/18 00:40:15;;;;;;;9.73;4.73;;;5.10;54.80;;;;;;5067321;28;46465;-66
2023/05/18 00:42:41;;;;;;;11.87;4.97;;;5.10;54.80;;;;;;5068502;27;46400;-66
2023/05/18 00:45:07;;;;;;;10.37;4.90;;;5.10;55.00;;;;;;5069520;27;46479;-66
2023/05/18 00:47:32;;;;;;;13.67;4.33;;;5.00;55.00;;;;;;5071392;27;47300;-66
2023/05/18 00:49:58;;;;;;;8.27;4.60;;;5.00;55.00;;;;;;5069949;28;45813;-67
2023/05/18 00:52:24;;;;;;;6.93;4.30;;;5.00;55.10;;;;;;5072981;27;46409;-66
2023/05/18 00:54:51;;;;;;;11.77;4.60;;;5.00;55.30;;;;;;5069490;28;46480;-67
2023/05/18 00:57:17;;;;;;;8.87;4.67;;;4.90;55.30;;;;;;5069658;27;46310;-68
2023/05/18 00:59:44;;;;;;;8.07;4.60;;;4.90;55.50;;;;;;5068202;27;46417;-66
2023/05/18 01:02:10;;;;;;;7.43;4.20;;;4.80;55.50;;;;;;5069737;27;46406;-67
2023/05/18 01:04:36;;;;;;;8.07;4.80;;;4.80;55.60;;;;;;5065329;27;46410;-66
2023/05/18 01:07:05;;;;;;;6.77;4.43;;;4.80;55.70;;;;;;5067015;27;46448;-67
2023/05/18 01:09:31;;;;;;;9.40;4.30;;;4.80;55.80;;;;;;5068055;27;46488;-67
2023/05/18 01:12:04;;;;;;;6.40;4.10;;;4.80;55.80;;;;;;5070179;27;46423;-66
2023/05/18 01:14:36;;;;;;;7.50;4.57;;;4.70;55.90;;;;;;5070111;27;46457;-66
2023/05/18 01:17:20;;;;;;;5.97;3.53;;;4.70;56.00;;;;;;5068270;27;46390;-66
2023/05/18 01:20:01;;;;;;;6.37;3.83;;;4.70;56.10;;;;;;5071782;27;45843;-66
2023/05/18 01:22:32;;;;;;;6.20;3.57;;;4.70;56.10;;;;;;5068967;28;46321;-66
2023/05/18 01:25:13;;;;;;;7.77;4.23;;;4.70;56.10;;;;;;5068494;27;46287;-66
2023/05/18 01:27:45;;;;;;;8.10;4.03;;;4.60;56.10;;;;;;5070130;28;45963;-66
2023/05/18 01:30:14;;;;;;;7.77;4.87;;;4.60;56.10;;;;;;5069289;27;46334;-66
2023/05/18 01:32:45;;;;;;;7.10;4.47;;;4.60;56.10;;;;;;5070540;27;46461;-66
2023/05/18 01:35:10;;;;;;;11.80;4.53;;;4.60;56.10;;;;;;5068497;27;46428;-67
2023/05/18 01:37:36;;;;;;;5.97;3.77;;;4.60;56.20;;;;;;5069554;27;47240;-66
2023/05/18 01:40:04;;;;;;;8.13;4.07;;;4.60;56.20;;;;;;5069144;27;46608;-67
2023/05/18 01:42:32;;;;;;;11.30;4.60;;;4.60;56.20;;;;;;5066781;27;46442;-66
2023/05/18 01:45:04;;;;;;;10.13;4.13;;;4.60;56.20;;;;;;5065590;27;46638;-67
2023/05/18 01:47:32;;;;;;;7.63;4.73;;;4.60;56.10;;;;;;5068866;27;46365;-67
2023/05/18 01:50:14;;;;;;;9.70;5.43;;;4.60;56.30;;;;;;5072593;27;46387;-68
2023/05/18 01:52:56;;;;;;;14.23;5.10;;;4.60;56.10;;;;;;5068186;27;45930;-67
2023/05/18 01:55:25;;;;;;;10.47;5.80;;;4.60;56.10;;;;;;5065876;27;46492;-67
2023/05/18 01:57:53;;;;;;;9.73;6.17;;;4.50;56.10;;;;;;5062470;27;46504;-68
2023/05/18 02:00:21;;;;;;;9.40;5.73;;;4.60;56.20;;;;;;5066498;27;46456;-67
2023/05/18 02:02:47;;;;;;;11.20;6.43;;;4.60;56.20;;;;;;5067191;27;46439;-67
2023/05/18 02:05:12;;;;;;;11.10;5.50;;;4.60;57.00;;;;;;5065338;27;46607;-67
2023/05/18 02:07:39;;;;;;;11.27;5.37;;;4.60;56.40;;;;;;5073617;27;46062;-66
2023/05/18 02:10:06;;;;;;;10.80;5.93;;;4.50;56.30;;;;;;5070089;28;45881;-67
2023/05/18 02:12:31;;;;;;;10.23;5.67;;;4.50;56.40;;;;;;5065300;27;46465;-67
2023/05/18 02:14:58;;;;;;;10.67;6.00;;;4.50;56.40;;;;;;5066137;27;46384;-66
2023/05/18 02:17:25;;;;;;;11.80;6.00;;;4.50;56.40;;;;;;5067510;27;46435;-65
2023/05/18 02:19:51;;;;;;;14.67;5.20;;;4.50;56.50;;;;;;5064417;27;45883;-67
2023/05/18 02:22:16;;;;;;;8.90;5.73;;;4.50;56.70;;;;;;5066829;28;46637;-67
2023/05/18 02:24:42;;;;;;;9.40;5.20;;;4.50;56.50;;;;;;5067319;27;46616;-68
2023/05/18 02:27:07;;;;;;;11.07;6.20;;;4.50;56.60;;;;;;5067517;27;46668;-68
2023/05/18 02:29:33;;;;;;;15.23;5.90;;;4.50;56.70;;;;;;5068010;27;46618;-67
2023/05/18 02:31:59;;;;;;;9.63;6.00;;;4.50;56.90;;;;;;5067972;27;46283;-67
2023/05/18 02:34:26;;;;;;;14.50;6.43;;;4.40;56.80;;;;;;5063909;27;46448;-68
2023/05/18 02:36:52;;;;;;;10.60;5.87;;;4.40;56.90;;;;;;5067929;27;46469;-68
2023/05/18 02:39:17;;;;;;;17.03;5.60;;;4.40;56.90;;;;;;5069510;27;46539;-67
2023/05/18 02:41:43;;;;;;;12.90;6.43;;;4.40;57.10;;;;;;5070439;27;45972;-68
2023/05/18 02:44:11;;;;;;;9.10;5.73;;;4.40;57.10;;;;;;5067299;27;45910;-67
2023/05/18 02:46:36;;;;;;;11.10;5.80;;;4.40;57.20;;;;;;5069614;27;46483;-67
2023/05/18 02:49:02;;;;;;;12.67;6.00;;;4.30;57.20;;;;;;5062161;27;46413;-68
2023/05/18 02:51:28;;;;;;;10.87;6.30;;;4.40;57.30;;;;;;5069738;27;45858;-67
2023/05/18 02:53:54;;;;;;;11.03;6.90;;;4.30;57.30;;;;;;5065314;27;46521;-67
2023/05/18 02:56:19;;;;;;;14.50;6.10;;;4.30;57.30;;;;;;5066615;27;46519;-67
2023/05/18 02:58:45;;;;;;;8.80;5.50;;;4.30;57.20;;;;;;5065488;27;46464;-67
2023/05/18 03:01:11;;;;;;;18.43;6.70;;;4.30;57.20;;;;;;5067568;27;46496;-67
2023/05/18 03:03:37;;;;;;;19.00;7.50;;;4.30;57.30;;;;;;5066350;27;46447;-67
2023/05/18 03:06:04;;;;;;;14.23;7.20;;;4.30;57.30;;;;;;5065335;27;46318;-67
2023/05/18 03:08:30;;;;;;;11.90;6.23;;;4.40;57.40;;;;;;5064837;27;45826;-67
2023/05/18 03:10:59;;;;;;;12.23;6.10;;;4.40;57.50;;;;;;5065581;27;46395;-67
2023/05/18 03:13:25;;;;;;;15.90;7.33;;;4.40;57.70;;;;;;5067426;27;46840;-67
2023/05/18 03:15:50;;;;;;;13.27;7.67;;;4.40;57.70;;;;;;5064707;27;46424;-67
2023/05/18 03:18:18;;;;;;;15.20;7.23;;;4.40;58.10;;;;;;5065609;27;46341;-67
2023/05/18 03:20:44;;;;;;;17.40;8.30;;;4.40;58.20;;;;;;5062759;27;46431;-67
2023/05/18 03:23:09;;;;;;;13.13;7.03;;;4.40;58.30;;;;;;5068290;27;46159;-68
2023/05/18 03:25:36;;;;;;;14.47;7.87;;;4.40;58.40;;;;;;5072313;27;46470;-67
2023/05/18 03:28:03;;;;;;;14.67;7.00;;;4.40;58.60;;;;;;5071183;27;46326;-67
2023/05/18 03:30:33;;;;;;;13.17;6.73;;;4.50;58.90;;;;;;5068609;28;47462;-68
2023/05/18 03:33:02;;;;;;;18.00;7.57;;;4.60;59.00;;;;;;5066195;28;46251;-67
2023/05/18 03:35:28;;;;;;;15.77;7.00;;;4.60;59.00;;;;;;5067032;27;46447;-68
2023/05/18 03:37:53;;;;;;;11.47;6.70;;;4.60;58.80;;;;;;5065709;27;46393;-67
2023/05/18 03:40:19;;;;;;;14.03;6.97;;;4.60;58.90;;;;;;5069502;27;46451;-68
2023/05/18 03:42:45;;;;;;;18.03;7.23;;;4.70;58.90;;;;;;5068346;27;46694;-67
2023/05/18 03:45:12;;;;;;;12.40;6.03;;;4.70;59.00;;;;;;5065967;27;46442;-68
2023/05/18 03:47:38;;;;;;;11.97;6.67;;;4.80;59.00;;;;;;5068538;27;46434;-69
2023/05/18 03:50:05;;;;;;;15.60;7.00;;;4.80;59.00;;;;;;5068964;28;46355;-67
2023/05/18 03:52:35;;;;;;;14.93;6.23;;;4.80;60.00;;;;;;5066428;27;46404;-68
2023/05/18 03:55:01;;;;;;;12.20;5.93;;;4.90;59.00;;;;;;5072777;27;46400;-67
2023/05/18 03:57:28;;;;;;;13.20;6.47;;;5.00;59.30;;;;;;5073663;27;46497;-67
2023/05/18 03:59:54;;;;;;;9.93;6.23;;;5.00;59.20;;;;;;5070994;27;46527;-68
2023/05/18 04:02:19;;;;;;;12.43;6.37;;;5.10;59.30;;;;;;5071685;27;46317;-68
2023/05/18 04:04:46;;;;;;;11.20;6.17;;;5.10;59.50;;;;;;5068864;27;46635;-67
2023/05/18 04:07:15;;;;;;;11.70;6.27;;;5.10;59.50;;;;;;5071087;27;46646;-67
2023/05/18 04:09:41;;;;;;;15.67;6.10;;;5.20;59.60;;;;;;5068010;27;46439;-68
2023/05/18 04:12:07;;;;;;;14.50;5.90;;;5.20;59.60;;;;;;5068445;27;46516;-68
2023/05/18 04:14:32;;;;;;;13.73;5.90;;;5.30;59.70;;;;;;5070282;27;46723;-67
2023/05/18 04:17:03;;;;;;;14.57;6.07;;;5.40;59.60;;;;;;5065361;27;45809;-67
2023/05/18 04:19:33;;;;;;;13.63;6.00;;;5.40;59.50;;;;;;5066421;28;46459;-66
2023/05/18 04:22:03;;;;;;;13.60;6.40;;;5.50;59.40;;;;;;5069478;28;46412;-66
2023/05/18 04:24:31;;;;;;;12.53;5.93;;;5.60;59.40;;;;;;5064947;27;46554;-67
2023/05/18 04:27:00;;;;;;;17.33;7.43;;;5.60;59.40;;;;;;5069173;28;46476;-66
2023/05/18 04:29:27;;;;;;;7.73;5.40;;;5.80;59.20;;;;;;5065588;27;46525;-66
2023/05/18 04:31:59;;;;;;;11.50;5.80;;;6.00;58.70;;;;;;5067469;27;46369;-66
2023/05/18 04:34:29;;;;;;;13.33;6.07;;;6.00;58.70;;;;;;5069501;27;46373;-66
2023/05/18 04:36:57;;;;;;;14.27;6.43;;;6.10;58.80;;;;;;5073601;27;46499;-66
2023/05/18 04:39:24;;;;;;;10.30;5.93;;;6.10;58.80;;;;;;5070341;27;45830;-67
2023/05/18 04:41:56;;;;;;;8.90;5.10;;;6.20;58.70;;;;;;5069568;27;46567;-66
2023/05/18 04:44:23;;;;;;;9.03;4.83;;;6.40;58.50;;;;;;5066653;27;46120;-66
2023/05/18 04:46:49;;;;;;;10.63;5.67;;;6.50;58.20;;;;;;5067378;27;46408;-65
2023/05/18 04:49:14;;;;;;;12.97;5.87;;;6.60;57.90;;;;;;5065094;27;46439;-66
2023/05/18 04:51:40;;;;;;;10.80;5.40;;;6.80;57.90;;;;;;5070505;28;46601;-66
2023/05/18 04:54:07;;;;;;;7.70;4.60;;;7.60;58.30;;;;;;5071378;27;46537;-66
2023/05/18 04:56:33;;;;;;;9.80;4.77;;;9.00;57.60;;;;;;5070071;27;46480;-67
2023/05/18 04:58:59;;;;;;;7.30;4.00;;;10.10;53.20;;;;;;5065785;27;46454;-66
2023/05/18 05:01:25;;;;;;;11.27;4.60;;;11.30;50.00;;;;;;5067622;27;46418;-65
2023/05/18 05:03:50;;;;;;;13.90;4.90;;;12.20;45.60;;;;;;5066592;27;46469;-66
2023/05/18 05:06:16;;;;;;;7.93;3.93;;;12.90;43.80;;;;;;5067744;27;46443;-66
2023/05/18 05:08:42;;;;;;;6.47;4.13;;;13.60;42.30;;;;;;5067934;28;46512;-66
2023/05/18 05:11:07;;;;;;;9.27;4.10;;;14.20;40.60;;;;;;5070312;27;46677;-66
2023/05/18 05:13:34;;;;;;;7.60;4.10;;;14.50;37.70;;;;;;5070597;27;46610;-67
2023/05/18 05:16:00;;;;;;;12.13;5.13;;;14.80;38.40;;;;;;5069875;27;46380;-66
2023/05/18 05:18:26;;;;;;;7.67;4.90;;;15.30;36.70;;;;;;5070909;27;46404;-66
2023/05/18 05:20:53;;;;;;;15.43;4.33;;;15.60;35.70;;;;;;5071052;27;46074;-67
2023/05/18 05:23:18;;;;;;;8.83;4.20;;;15.60;37.00;;;;;;5068351;27;46731;-67
2023/05/18 05:25:44;;;;;;;12.40;4.50;;;15.70;37.00;;;;;;5067941;27;46531;-66
2023/05/18 05:28:10;;;;;;;14.50;5.60;;;16.30;34.60;;;;;;5067246;27;46426;-66
2023/05/18 05:30:35;;;;;;;9.73;4.03;;;16.90;32.00;;;;;;5067493;27;46491;-66
2023/05/18 05:33:01;;;;;;;8.80;4.30;;;17.30;31.60;;;;;;5063913;27;46793;-66
2023/05/18 05:35:26;;;;;;;7.47;4.10;;;18.00;28.80;;;;;;5066125;27;46439;-66
2023/05/18 05:37:52;;;;;;;9.50;3.67;;;17.70;28.00;;;;;;5068827;27;46294;-66
2023/05/18 05:40:17;;;;;;;12.63;4.93;;;17.60;27.80;;;;;;5067739;28;46361;-66
2023/05/18 05:42:43;;;;;;;10.33;4.20;;;17.80;27.20;;;;;;5067760;27;46472;-65
2023/05/18 05:45:09;;;;;;;10.03;4.40;;;18.10;26.50;;;;;;5067079;27;46548;-66
2023/05/18 05:47:35;;;;;;;12.27;4.30;;;18.00;24.10;;;;;;5068752;27;46483;-66
2023/05/18 05:50:00;;;;;;;8.30;3.87;;;17.80;25.00;;;;;;5071122;27;46398;-65
2023/05/18 05:52:27;;;;;;;11.53;4.20;;;17.30;25.50;;;;;;5067404;27;46370;-65
2023/05/18 05:54:53;;;;;;;10.20;4.00;;;17.00;25.80;;;;;;5066750;27;46556;-67
2023/05/18 05:57:19;;;;;;;11.00;3.87;;;16.90;25.90;;;;;;5069574;28;46567;-67
2023/05/18 05:59:45;;;;;;;9.13;3.40;;;16.90;25.20;;;;;;5068052;27;46481;-66
2023/05/18 06:02:11;;;;;;;8.30;3.67;;;17.20;23.90;;;;;;5069429;27;47172;-66
2023/05/18 06:04:37;;;;;;;7.30;4.00;;;17.50;22.90;;;;;;5066573;27;46508;-66
2023/05/18 06:07:02;;;;;;;8.33;4.30;;;17.80;22.10;;;;;;5066168;28;46444;-66
2023/05/18 06:09:28;;;;;;;10.03;3.90;;;17.40;20.90;;;;;;5064085;27;46509;-66
2023/05/18 06:11:54;;;;;;;10.40;4.13;;;17.30;21.90;;;;;;5070312;27;46353;-66
2023/05/18 06:14:20;;;;;;;13.60;4.73;;;16.50;23.30;;;;;;5066042;27;46676;-65
2023/05/18 06:16:46;;;;;;;11.70;4.70;;;14.80;27.60;;;;;;5068779;27;46436;-66
2023/05/18 06:19:12;;;;;;;9.30;4.53;;;14.00;30.50;;;;;;5084763;27;46472;-66
2023/05/18 06:21:38;;;;;;;9.10;3.73;;;13.20;30.70;;;;;;5070969;27;47236;-65
2023/05/18 06:24:04;;;;;;;8.50;4.10;;;12.90;32.30;;;;;;5060252;28;46451;-65
2023/05/18 06:26:30;;;;;;;10.03;4.80;;;12.90;33.20;;;;;;5057419;28;46757;-65
2023/05/18 06:28:56;;;;;;;8.63;4.57;;;12.80;33.00;;;;;;5049670;27;46963;-65
2023/05/18 06:31:21;;;;;;;15.40;5.17;;;12.80;33.10;;;;;;5051557;28;47097;-65
2023/05/18 06:33:47;;;;;;;11.60;4.40;;;12.90;32.70;;;;;;5052972;28;46426;-63
2023/05/18 06:36:14;;;;;;;14.23;4.53;;;12.80;32.30;;;;;;5054321;28;46616;-65
2023/05/18 06:38:40;;;;;;;7.07;4.70;;;12.80;32.90;;;;;;5054305;28;46691;-65
2023/05/18 06:41:06;;;;;;;13.73;4.90;;;12.90;33.20;;;;;;5054929;28;47010;-65
2023/05/18 06:43:31;;;;;;;8.10;4.37;;;13.00;32.80;;;;;;5048545;28;46393;-63
2023/05/18 06:45:57;;;;;;;12.87;4.67;;;12.70;32.90;;;;;;5054289;28;46365;-65
2023/05/18 06:48:26;;;;;;;12.53;4.90;;;12.60;32.70;;;;;;5053168;27;46411;-65
2023/05/18 06:50:52;;;;;;;9.80;4.87;;;12.60;33.10;;;;;;5057002;28;46420;-65
2023/05/18 06:53:17;;;;;;;12.10;4.83;;;12.60;32.60;;;;;;5068160;28;46598;-64
2023/05/18 06:55:43;;;;;;;8.17;4.93;;;12.70;32.30;;;;;;5061186;27;46230;-64
2023/05/18 06:58:09;;;;;;;11.57;5.40;;;12.70;31.90;;;;;;5062632;28;46437;-65
2023/05/18 07:00:34;;;;;;;10.47;4.80;;;12.80;31.80;;;;;;5060220;28;49554;-64
2023/05/18 07:03:00;;;;;;;14.43;5.00;;;13.00;31.10;;;;;;5064881;28;46415;-65
2023/05/18 07:05:26;;;;;;;11.00;5.83;;;13.30;30.60;;;;;;5062542;28;46455;-64
2023/05/18 07:07:52;;;;;;;16.43;5.10;;;13.10;30.00;;;;;;5063615;28;46400;-66
2023/05/18 07:10:18;;;;;;;12.60;5.07;;;13.20;30.00;;;;;;5065320;28;46725;-65
2023/05/18 07:12:43;;;;;;;12.23;4.90;;;13.30;30.00;;;;;;5063246;28;46616;-65
2023/05/18 07:15:10;;;;;;;13.00;6.20;;;13.30;30.00;;;;;;5062773;28;46403;-64
2023/05/18 07:17:36;;;;;;;9.37;5.10;;;13.40;29.90;;;;;;5064479;28;46490;-64
2023/05/18 07:20:04;;;;;;;15.13;4.60;;;13.40;30.00;;;;;;5067462;27;47236;-65
2023/05/18 07:22:30;;;;;;;15.77;4.50;;;13.40;29.60;;;;;;5068116;27;46374;-65
2023/05/18 07:24:57;;;;;;;9.87;4.57;;;13.40;29.80;;;;;;5067645;28;46390;-65
2023/05/18 07:27:23;;;;;;;11.17;4.60;;;13.40;29.60;;;;;;5066422;28;46494;-66
2023/05/18 07:29:48;;;;;;;41.60;5.30;;;13.30;29.50;;;;;;5070376;28;47177;-68
2023/05/18 07:32:14;;;;;;;15.43;4.13;;;13.30;28.40;;;;;;5070202;28;46811;-65
2023/05/18 07:34:42;;;;;;;17.20;4.97;;;13.60;28.60;;;;;;5068271;28;46411;-66
2023/05/18 07:37:08;;;;;;;10.90;4.70;;;13.60;28.30;;;;;;5070256;28;46547;-65
2023/05/18 07:39:34;;;;;;;9.67;4.07;;;13.50;29.00;;;;;;5067035;28;46949;-67
2023/05/18 07:42:00;;;;;;;16.53;4.37;;;13.70;28.30;;;;;;5069961;28;46401;-67
2023/05/18 07:44:26;;;;;;;13.40;4.57;;;13.80;27.70;;;;;;5068091;28;46447;-66
2023/05/18 07:46:52;;;;;;;11.43;5.57;;;13.90;27.10;;;;;;5069241;27;46571;-66
2023/05/18 07:49:18;;;;;;;9.57;4.17;;;13.80;26.50;;;;;;5065140;28;47078;-68
2023/05/18 07:51:43;;;;;;;13.93;4.73;;;14.10;26.60;;;;;;5072276;28;46635;-67
2023/05/18 07:54:09;;;;;;;16.10;4.50;;;14.20;26.60;;;;;;5066365;28;46522;-66
2023/05/18 07:56:34;;;;;;;12.83;4.73;;;14.30;26.90;;;;;;5068119;28;46412;-67
2023/05/18 07:59:00;;;;;;;11.60;4.00;;;14.20;26.00;;;;;;5067929;28;46414;-67
2023/05/18 08:01:28;;;;;;;11.30;5.20;;;14.10;25.70;;;;;;5069605;28;46627;-67
2023/05/18 08:03:55;;;;;;;12.10;4.30;;;14.40;25.50;;;;;;5068783;28;46346;-68
2023/05/18 08:06:20;;;;;;;9.20;3.50;;;14.40;25.00;;;;;;5070492;28;46126;-67
2023/05/18 08:08:46;;;;;;;7.93;3.40;;;14.60;24.20;;;;;;5066174;28;46914;-66
2023/05/18 08:11:12;;;;;;;8.30;4.00;;;14.40;23.00;;;;;;5069795;28;46519;-66
2023/05/18 08:13:38;;;;;;;11.70;4.10;;;14.50;23.90;;;;;;5067581;28;46174;-67
2023/05/18 08:16:03;;;;;;;8.63;3.57;;;14.50;24.10;;;;;;5068949;28;46469;-68
2023/05/18 08:18:29;;;;;;;13.23;4.10;;;14.60;23.60;;;;;;5067475;27;46302;-66
2023/05/18 08:20:55;;;;;;;16.00;4.43;;;14.70;22.90;;;;;;5067190;28;46550;-66
2023/05/18 08:23:22;;;;;;;9.43;3.33;;;14.90;23.20;;;;;;5066162;28;46650;-66
2023/05/18 08:25:47;;;;;;;6.60;3.50;;;14.90;23.10;;;;;;5068733;28;45907;-66
2023/05/18 08:28:13;;;;;;;14.70;4.00;;;14.90;23.00;;;;;;5066288;28;47097;-67
2023/05/18 08:30:38;;;;;;;9.93;3.47;;;14.90;22.70;;;;;;5067921;28;46468;-66
2023/05/18 08:33:04;;;;;;;12.50;3.30;;;14.90;23.00;;;;;;5067779;28;45843;-69
2023/05/18 08:35:31;;;;;;;10.67;3.90;;;15.00;23.40;;;;;;5067356;28;46471;-66
2023/05/18 08:37:56;;;;;;;9.97;3.73;;;14.80;22.80;;;;;;5067092;28;46376;-67
2023/05/18 08:40:31;;;;;;;13.80;3.97;;;14.80;22.30;;;;;;5066496;28;45852;-66
2023/05/18 08:43:17;;;;;;;12.20;3.60;;;14.90;22.00;;;;;;5065375;28;46586;-66
2023/05/18 08:45:51;;;;;;;7.53;3.93;;;15.00;21.70;;;;;;5064195;28;46584;-66
2023/05/18 08:48:20;;;;;;;11.07;4.30;;;14.90;21.70;;;;;;5070184;28;46464;-65
2023/05/18 08:50:48;;;;;;;11.00;4.03;;;14.90;21.90;;;;;;5065967;28;46431;-67
2023/05/18 08:53:17;;;;;;;10.20;3.93;;;15.00;22.10;;;;;;5066640;28;46425;-67
2023/05/18 08:55:45;;;;;;;14.63;4.93;;;14.90;22.30;;;;;;5069304;27;46281;-66
2023/05/18 08:58:16;;;;;;;10.30;4.13;;;14.80;22.80;;;;;;5067573;28;46618;-67
2023/05/18 09:00:42;;;;;;;8.60;3.60;;;14.70;23.00;;;;;;5068766;28;46294;-66
2023/05/18 09:03:08;;;;;;;6.93;3.40;;;14.70;22.60;;;;;;5069014;28;46650;-66
2023/05/18 09:05:33;;;;;;;8.90;3.30;;;14.60;22.90;;;;;;5066670;28;46856;-66
2023/05/18 09:07:59;;;;;;;10.80;4.37;;;14.30;23.50;;;;;;5066486;28;46440;-66
2023/05/18 09:10:25;;;;;;;10.00;3.43;;;14.30;23.60;;;;;;5067456;28;46339;-66
2023/05/18 09:12:53;;;;;;;10.43;3.67;;;14.40;23.90;;;;;;5065246;28;46445;-68
2023/05/18 09:15:20;;;;;;;8.10;4.20;;;14.50;23.80;;;;;;5065165;28;46891;-67
2023/05/18 09:17:46;;;;;;;13.97;4.30;;;14.40;24.10;;;;;;5065276;28;46722;-66
2023/05/18 09:20:12;;;;;;;7.37;4.30;;;14.30;24.70;;;;;;5064380;28;46470;-67
2023/05/18 09:22:39;;;;;;;12.43;4.17;;;14.60;24.10;;;;;;5069150;28;46439;-68
2023/05/18 09:25:08;;;;;;;12.77;5.17;;;14.80;23.80;;;;;;5066553;28;46447;-67
2023/05/18 09:27:33;;;;;;;11.63;4.40;;;14.80;23.90;;;;;;5064260;28;46484;-67
2023/05/18 09:29:59;;;;;;;10.67;4.20;;;15.20;23.30;;;;;;5064250;27;46455;-66
2023/05/18 09:32:25;;;;;;;7.97;3.67;;;15.40;22.60;;;;;;5066950;28;46385;-67
2023/05/18 09:34:52;;;;;;;8.03;4.10;;;15.70;21.90;;;;;;5066849;27;47863;-66
2023/05/18 09:37:19;;;;;;;11.37;3.90;;;16.00;21.40;;;;;;5067697;27;46428;-65
2023/05/18 09:40:00;;;;;;;9.77;4.03;;;15.90;20.80;;;;;;5063725;27;46343;-65
2023/05/18 09:42:48;;;;;;;9.13;3.97;;;16.00;20.90;;;;;;5066469;27;46344;-67
2023/05/18 09:45:17;;;;;;;7.73;3.80;;;16.10;21.20;;;;;;5065428;28;46556;-67
2023/05/18 09:47:42;;;;;;;15.40;4.80;;;15.80;20.80;;;;;;5065993;27;48139;-66
2023/05/18 09:50:08;;;;;;;9.47;4.73;;;15.40;21.30;;;;;;5064931;28;46471;-67
2023/05/18 09:52:44;;;;;;;10.37;4.20;;;15.70;21.30;;;;;;5066108;28;46433;-67
2023/05/18 09:55:11;;;;;;;13.40;4.90;;;15.60;21.00;;;;;;5067136;28;46851;-67
2023/05/18 09:57:47;;;;;;;11.83;4.57;;;15.50;21.30;;;;;;5064839;28;46647;-66
2023/05/18 10:00:18;;;;;;;9.10;4.10;;;15.50;21.30;;;;;;5063731;28;45878;-67
2023/05/18 10:02:50;;;;;;;10.40;5.03;;;15.50;21.50;;;;;;5064084;28;46446;-67
2023/05/18 10:05:29;;;;;;;9.67;4.30;;;15.50;20.90;;;;;;5066334;28;46611;-66
2023/05/18 10:07:56;;;;;;;13.33;3.87;;;15.50;20.80;;;;;;5064286;28;46381;-67
2023/05/18 10:10:25;;;;;;;8.00;3.20;;;15.40;20.20;;;;;;5069023;28;46491;-66
2023/05/18 10:12:51;;;;;;;12.30;3.73;;;15.30;20.60;;;;;;5065891;28;46381;-66
2023/05/18 10:15:19;;;;;;;8.73;3.73;;;15.40;20.00;;;;;;5065566;28;46357;-67
2023/05/18 10:17:47;;;;;;;8.10;3.50;;;15.40;20.00;;;;;;5065637;28;46377;-68
2023/05/18 10:20:19;;;;;;;10.30;3.53;;;15.70;19.70;;;;;;5064891;27;45838;-67
2023/05/18 10:22:47;;;;;;;10.77;4.37;;;16.00;19.60;;;;;;5066709;28;46514;-67
2023/05/18 10:25:21;;;;;;;10.60;3.17;;;15.90;18.70;;;;;;5062131;28;46542;-67
2023/05/18 10:27:49;;;;;;;11.33;3.83;;;15.80;19.30;;;;;;5065513;28;46677;-66
2023/05/18 10:30:16;;;;;;;10.10;3.47;;;15.70;19.40;;;;;;5064615;28;46950;-68
2023/05/18 10:32:44;;;;;;;8.33;3.53;;;15.70;19.40;;;;;;5066037;28;46392;-67
2023/05/18 10:35:10;;;;;;;8.93;3.83;;;15.80;19.50;;;;;;5064959;28;46423;-65
2023/05/18 10:37:40;;;;;;;10.97;4.17;;;15.70;19.30;;;;;;5063746;28;47235;-67
2023/05/18 10:40:07;;;;;;;13.50;3.77;;;16.00;18.60;;;;;;5063456;28;46334;-66
2023/05/18 10:42:33;;;;;;;10.07;3.77;;;16.10;18.80;;;;;;5063024;28;46295;-63
2023/05/18 10:45:00;;;;;;;6.80;3.40;;;15.90;18.70;;;;;;5057984;28;46530;-65
2023/05/18 10:47:28;;;;;;;13.90;3.90;;;15.90;19.50;;;;;;5062096;28;47323;-64
2023/05/18 10:49:56;;;;;;;14.57;3.50;;;15.80;18.80;;;;;;5067110;27;46464;-64
2023/05/18 10:52:23;;;;;;;7.63;3.17;;;15.70;18.80;;;;;;5063365;27;46453;-65
2023/05/18 10:54:48;;;;;;;10.43;3.50;;;15.60;18.90;;;;;;5066902;28;46497;-65
2023/05/18 10:57:17;;;;;;;6.67;3.17;;;15.60;19.30;;;;;;5063806;28;48024;-64
2023/05/18 10:59:45;;;;;;;6.60;2.87;;;15.70;19.40;;;;;;5062829;28;46433;-66
2023/05/18 11:02:16;;;;;;;7.87;3.00;;;15.90;19.50;;;;;;5066081;28;45899;-65
2023/05/18 11:04:42;;;;;;;11.87;3.47;;;16.00;19.10;;;;;;5063134;28;46583;-65
2023/05/18 11:07:12;;;;;;;9.53;3.20;;;16.20;18.60;;;;;;5063860;28;46452;-66
2023/05/18 11:09:41;;;;;;;9.57;3.43;;;16.40;18.70;;;;;;5061263;28;46537;-66
2023/05/18 11:12:16;;;;;;;9.00;3.20;;;16.70;18.30;;;;;;5063112;28;46424;-68
2023/05/18 11:14:52;;;;;;;6.27;3.47;;;16.80;18.10;;;;;;5065352;28;46607;-65
2023/05/18 11:17:25;;;;;;;7.73;3.10;;;16.80;17.70;;;;;;5063766;28;46300;-62
2023/05/18 11:20:04;;;;;;;8.30;3.30;;;16.70;17.80;;;;;;5061623;28;46448;-67
2023/05/18 11:22:45;;;;;;;6.17;2.90;;;16.60;17.70;;;;;;5061707;28;46542;-66
2023/05/18 11:25:29;;;;;;;8.10;3.10;;;16.50;17.90;;;;;;5064553;28;45894;-65
2023/05/18 11:28:07;;;;;;;10.13;4.30;;;16.40;17.80;;;;;;5061955;28;46374;-65
2023/05/18 11:30:32;;;;;;;16.10;3.20;;;16.20;17.90;;;;;;5061347;28;46426;-66
2023/05/18 11:33:10;;;;;;;10.80;3.90;;;16.10;18.10;;;;;;5059762;28;46475;-66
2023/05/18 11:35:54;;;;;;;7.43;3.10;;;16.00;18.40;;;;;;5065571;28;46636;-66
2023/05/18 11:38:20;;;;;;;12.80;4.53;;;15.80;18.90;;;;;;5061921;28;46816;-67
2023/05/18 11:40:47;;;;;;;17.33;4.13;;;15.60;19.30;;;;;;5059161;28;46364;-67
2023/05/18 11:43:23;;;;;;;11.00;3.90;;;15.30;19.70;;;;;;5061067;28;46821;-67
2023/05/18 11:45:55;;;;;;;9.47;3.67;;;15.30;20.30;;;;;;5059515;28;46484;-67
2023/05/18 11:48:22;;;;;;;15.70;4.33;;;15.70;20.50;;;;;;5061583;28;46403;-66
2023/05/18 11:50:48;;;;;;;7.67;3.70;;;16.10;19.60;;;;;;5060501;28;46365;-68
2023/05/18 11:53:17;;;;;;;9.40;2.97;;;16.40;18.90;;;;;;5063840;28;45997;-67
2023/05/18 11:55:44;;;;;;;6.73;2.90;;;16.20;18.90;;;;;;5063757;27;46608;-66
2023/05/18 11:58:11;;;;;;;10.03;3.17;;;16.00;19.30;;;;;;5064814;28;47107;-68
2023/05/18 12:00:37;;;;;;;12.50;4.13;;;15.90;19.50;;;;;;5064290;28;46417;-66
2023/05/18 12:03:03;;;;;;;11.83;3.70;;;15.90;19.00;;;;;;5061829;28;46536;-66
2023/05/18 12:05:34;;;;;;;9.07;3.43;;;16.10;18.70;;;;;;5061644;28;46535;-66
2023/05/18 12:08:00;;;;;;;9.63;3.30;;;16.00;18.90;;;;;;5073474;27;47053;-67
2023/05/18 12:10:25;;;;;;;9.33;3.57;;;16.00;18.90;;;;;;5065943;28;46429;-68
2023/05/18 12:12:52;;;;;;;9.70;3.60;;;15.90;18.70;;;;;;5070838;28;46446;-67
2023/05/18 12:15:22;;;;;;;11.97;3.60;;;15.80;19.10;;;;;;5065396;27;46603;-67
2023/05/18 12:17:49;;;;;;;6.00;2.77;;;15.80;18.70;;;;;;5070053;28;47148;-65
2023/05/18 12:20:16;;;;;;;12.60;3.77;;;15.80;18.60;;;;;;5066475;28;46452;-67
2023/05/18 12:22:49;;;;;;;7.00;3.03;;;15.70;19.30;;;;;;5064416;28;46494;-67
2023/05/18 12:25:14;;;;;;;12.57;3.60;;;15.80;19.40;;;;;;5070538;28;45840;-67
2023/05/18 12:27:42;;;;;;;13.43;3.40;;;15.80;19.40;;;;;;5071483;28;47201;-69
2023/05/18 12:30:21;;;;;;;9.20;3.27;;;15.80;19.40;;;;;;5065646;28;46538;-66
2023/05/18 12:32:52;;;;;;;8.97;2.93;;;15.70;19.10;;;;;;5064445;28;46379;-64
2023/05/18 12:35:24;;;;;;;13.60;2.77;;;15.60;19.30;;;;;;5066610;28;46406;-67
2023/05/18 12:37:51;;;;;;;7.20;3.00;;;15.40;19.10;;;;;;5068310;28;46438;-66
2023/05/18 12:40:19;;;;;;;9.03;3.20;;;15.20;19.50;;;;;;5070650;28;46267;-66
2023/05/18 12:42:52;;;;;;;7.57;3.30;;;15.10;19.90;;;;;;5067521;28;46557;-67
2023/05/18 12:45:19;;;;;;;15.00;3.10;;;15.40;19.50;;;;;;5065643;28;45877;-66
2023/05/18 12:47:45;;;;;;;7.83;2.80;;;15.60;19.30;;;;;;5064373;28;46578;-67